sensor_id;sensor_type;location;lat;lon;timestamp;P1;durP1;ratioP1;P2;durP2;ratioP2
43682;SDS011;29285;52.128;21.060;2023-07-29T00:03:28;7.60;;;4.50;;
43682;SDS011;29285;52.128;21.060;2023-07-29T00:08:34;5.10;;;4.60;;
43682;SDS011;29285;52.128;21.060;2023-07-29T00:13:35;5.10;;;4.70;;
43682;SDS011;29285;52.128;21.060;2023-07-29T00:18:37;6.30;;;5.30;;
43682;SDS011;29285;52.128;21.060;2023-07-29T00:23:40;5.50;;;4.80;;
43682;SDS011;29285;52.128;21.060;2023-07-29T00:28:42;7.70;;;5.00;;
43682;SDS011;29285;52.128;21.060;2023-07-29T00:33:44;5.40;;;4.90;;
43682;SDS011;29285;52.128;21.060;2023-07-29T00:38:46;5.40;;;4.90;;
43682;SDS011;29285;52.128;21.060;2023-07-29T00:43:47;7.70;;;4.90;;
43682;SDS011;29285;52.128;21.060;2023-07-29T00:48:50;5.80;;;5.10;;
43682;SDS011;29285;52.128;21.060;2023-07-29T00:53:51;6.50;;;5.80;;
43682;SDS011;29285;52.128;21.060;2023-07-29T00:58:53;5.90;;;5.30;;
43682;SDS011;29285;52.128;21.060;2023-07-29T01:04:00;8.90;;;5.50;;
43682;SDS011;29285;52.128;21.060;2023-07-29T01:09:02;8.10;;;5.60;;
43682;SDS011;29285;52.128;21.060;2023-07-29T01:14:15;6.80;;;6.00;;
43682;SDS011;29285;52.128;21.060;2023-07-29T01:24:56;8.40;;;6.40;;
43682;SDS011;29285;52.128;21.060;2023-07-29T01:29:59;7.70;;;7.00;;
43682;SDS011;29285;52.128;21.060;2023-07-29T01:35:23;8.30;;;7.50;;
43682;SDS011;29285;52.128;21.060;2023-07-29T01:40:30;8.10;;;7.30;;
43682;SDS011;29285;52.128;21.060;2023-07-29T01:45:33;10.50;;;9.20;;
43682;SDS011;29285;52.128;21.060;2023-07-29T01:50:39;11.00;;;9.50;;
43682;SDS011;29285;52.128;21.060;2023-07-29T01:55:42;12.50;;;9.40;;
43682;SDS011;29285;52.128;21.060;2023-07-29T02:00:46;8.80;;;7.90;;
43682;SDS011;29285;52.128;21.060;2023-07-29T02:05:48;10.70;;;9.70;;
43682;SDS011;29285;52.128;21.060;2023-07-29T02:10:49;11.40;;;8.90;;
43682;SDS011;29285;52.128;21.060;2023-07-29T02:15:51;12.00;;;10.40;;
43682;SDS011;29285;52.128;21.060;2023-07-29T02:20:53;12.60;;;10.10;;
43682;SDS011;29285;52.128;21.060;2023-07-29T02:25:55;14.50;;;10.60;;
43682;SDS011;29285;52.128;21.060;2023-07-29T02:31:13;11.10;;;9.90;;
43682;SDS011;29285;52.128;21.060;2023-07-29T02:36:15;13.60;;;10.90;;
43682;SDS011;29285;52.128;21.060;2023-07-29T02:41:18;12.20;;;11.00;;
43682;SDS011;29285;52.128;21.060;2023-07-29T02:46:19;12.70;;;11.10;;
43682;SDS011;29285;52.128;21.060;2023-07-29T02:51:22;14.10;;;10.70;;
43682;SDS011;29285;52.128;21.060;2023-07-29T02:56:23;14.60;;;10.90;;
43682;SDS011;29285;52.128;21.060;2023-07-29T03:01:25;12.90;;;10.70;;
43682;SDS011;29285;52.128;21.060;2023-07-29T03:06:27;16.60;;;11.50;;
43682;SDS011;29285;52.128;21.060;2023-07-29T03:11:29;22.00;;;12.40;;
43682;SDS011;29285;52.128;21.060;2023-07-29T03:16:32;16.00;;;12.20;;
43682;SDS011;29285;52.128;21.060;2023-07-29T03:21:34;55.80;;;12.70;;
43682;SDS011;29285;52.128;21.060;2023-07-29T03:26:36;26.00;;;13.00;;
43682;SDS011;29285;52.128;21.060;2023-07-29T03:31:38;36.50;;;12.50;;
43682;SDS011;29285;52.128;21.060;2023-07-29T03:36:40;18.60;;;12.50;;
43682;SDS011;29285;52.128;21.060;2023-07-29T03:41:42;24.30;;;13.70;;
43682;SDS011;29285;52.128;21.060;2023-07-29T03:46:44;15.30;;;11.80;;
43682;SDS011;29285;52.128;21.060;2023-07-29T03:51:46;20.40;;;11.60;;
43682;SDS011;29285;52.128;21.060;2023-07-29T03:56:48;14.40;;;11.50;;
43682;SDS011;29285;52.128;21.060;2023-07-29T04:01:50;25.80;;;11.80;;
43682;SDS011;29285;52.128;21.060;2023-07-29T04:06:52;24.40;;;10.80;;
43682;SDS011;29285;52.128;21.060;2023-07-29T04:11:54;17.40;;;11.70;;
43682;SDS011;29285;52.128;21.060;2023-07-29T04:16:57;41.10;;;10.90;;
43682;SDS011;29285;52.128;21.060;2023-07-29T04:21:59;14.40;;;11.30;;
43682;SDS011;29285;52.128;21.060;2023-07-29T04:27:01;18.00;;;9.70;;
43682;SDS011;29285;52.128;21.060;2023-07-29T04:32:04;15.30;;;11.40;;
43682;SDS011;29285;52.128;21.060;2023-07-29T04:37:06;13.20;;;11.70;;
43682;SDS011;29285;52.128;21.060;2023-07-29T04:42:08;23.00;;;11.50;;
43682;SDS011;29285;52.128;21.060;2023-07-29T04:47:11;15.90;;;11.60;;
43682;SDS011;29285;52.128;21.060;2023-07-29T04:52:13;12.30;;;11.00;;
43682;SDS011;29285;52.128;21.060;2023-07-29T04:57:16;14.10;;;11.10;;
43682;SDS011;29285;52.128;21.060;2023-07-29T05:02:18;12.80;;;11.50;;
43682;SDS011;29285;52.128;21.060;2023-07-29T05:07:20;11.40;;;10.30;;
43682;SDS011;29285;52.128;21.060;2023-07-29T05:12:22;12.10;;;11.00;;
43682;SDS011;29285;52.128;21.060;2023-07-29T05:17:24;10.10;;;8.90;;
43682;SDS011;29285;52.128;21.060;2023-07-29T05:22:26;15.40;;;13.80;;
43682;SDS011;29285;52.128;21.060;2023-07-29T05:27:28;14.80;;;13.40;;
43682;SDS011;29285;52.128;21.060;2023-07-29T05:32:30;16.90;;;15.30;;
43682;SDS011;29285;52.128;21.060;2023-07-29T05:37:32;15.10;;;13.60;;
43682;SDS011;29285;52.128;21.060;2023-07-29T05:42:34;15.20;;;13.70;;
43682;SDS011;29285;52.128;21.060;2023-07-29T05:47:36;15.80;;;14.10;;
43682;SDS011;29285;52.128;21.060;2023-07-29T05:52:38;12.70;;;11.60;;
43682;SDS011;29285;52.128;21.060;2023-07-29T05:57:40;15.20;;;13.70;;
43682;SDS011;29285;52.128;21.060;2023-07-29T06:02:42;15.60;;;14.20;;
43682;SDS011;29285;52.128;21.060;2023-07-29T06:07:45;14.90;;;13.40;;
43682;SDS011;29285;52.128;21.060;2023-07-29T06:12:49;14.40;;;13.20;;
43682;SDS011;29285;52.128;21.060;2023-07-29T06:17:51;12.20;;;10.90;;
43682;SDS011;29285;52.128;21.060;2023-07-29T06:22:53;13.90;;;12.20;;
43682;SDS011;29285;52.128;21.060;2023-07-29T06:27:55;14.00;;;12.80;;
43682;SDS011;29285;52.128;21.060;2023-07-29T06:32:57;12.40;;;11.20;;
43682;SDS011;29285;52.128;21.060;2023-07-29T06:37:59;11.40;;;10.20;;
43682;SDS011;29285;52.128;21.060;2023-07-29T06:43:01;9.70;;;8.90;;
43682;SDS011;29285;52.128;21.060;2023-07-29T06:48:03;12.60;;;11.10;;
43682;SDS011;29285;52.128;21.060;2023-07-29T06:53:05;11.20;;;10.10;;
43682;SDS011;29285;52.128;21.060;2023-07-29T06:58:08;11.00;;;10.10;;
43682;SDS011;29285;52.128;21.060;2023-07-29T07:03:10;13.00;;;11.80;;
43682;SDS011;29285;52.128;21.060;2023-07-29T07:08:12;12.50;;;10.20;;
43682;SDS011;29285;52.128;21.060;2023-07-29T07:13:14;10.60;;;8.30;;
43682;SDS011;29285;52.128;21.060;2023-07-29T07:18:16;8.30;;;7.60;;
43682;SDS011;29285;52.128;21.060;2023-07-29T07:23:18;9.00;;;8.20;;
43682;SDS011;29285;52.128;21.060;2023-07-29T07:28:20;8.80;;;8.00;;
43682;SDS011;29285;52.128;21.060;2023-07-29T07:33:22;11.10;;;9.80;;
43682;SDS011;29285;52.128;21.060;2023-07-29T07:38:24;10.60;;;9.70;;
43682;SDS011;29285;52.128;21.060;2023-07-29T07:43:26;10.60;;;9.70;;
43682;SDS011;29285;52.128;21.060;2023-07-29T07:48:28;9.10;;;8.30;;
43682;SDS011;29285;52.128;21.060;2023-07-29T07:53:31;9.30;;;8.40;;
43682;SDS011;29285;52.128;21.060;2023-07-29T07:58:33;8.80;;;8.10;;
43682;SDS011;29285;52.128;21.060;2023-07-29T08:03:35;9.20;;;8.40;;
43682;SDS011;29285;52.128;21.060;2023-07-29T08:08:38;7.20;;;6.70;;
43682;SDS011;29285;52.128;21.060;2023-07-29T08:13:42;9.40;;;7.00;;
43682;SDS011;29285;52.128;21.060;2023-07-29T08:18:44;7.30;;;6.70;;
43682;SDS011;29285;52.128;21.060;2023-07-29T08:23:47;7.50;;;6.90;;
43682;SDS011;29285;52.128;21.060;2023-07-29T08:28:49;6.40;;;5.90;;
43682;SDS011;29285;52.128;21.060;2023-07-29T08:33:51;7.40;;;6.60;;
43682;SDS011;29285;52.128;21.060;2023-07-29T08:38:53;6.50;;;6.00;;
43682;SDS011;29285;52.128;21.060;2023-07-29T08:49:18;5.90;;;5.40;;
43682;SDS011;29285;52.128;21.060;2023-07-29T08:54:24;5.40;;;4.60;;
43682;SDS011;29285;52.128;21.060;2023-07-29T08:59:28;4.60;;;4.30;;
43682;SDS011;29285;52.128;21.060;2023-07-29T09:04:30;4.90;;;4.50;;
43682;SDS011;29285;52.128;21.060;2023-07-29T09:09:32;4.60;;;4.30;;
43682;SDS011;29285;52.128;21.060;2023-07-29T09:14:34;4.50;;;3.70;;
43682;SDS011;29285;52.128;21.060;2023-07-29T09:19:36;4.40;;;4.00;;
43682;SDS011;29285;52.128;21.060;2023-07-29T09:24:38;8.10;;;3.50;;
43682;SDS011;29285;52.128;21.060;2023-07-29T09:29:40;3.70;;;3.30;;
43682;SDS011;29285;52.128;21.060;2023-07-29T09:34:42;4.70;;;3.50;;
43682;SDS011;29285;52.128;21.060;2023-07-29T09:39:45;3.70;;;3.40;;
43682;SDS011;29285;52.128;21.060;2023-07-29T09:44:49;4.20;;;3.10;;
43682;SDS011;29285;52.128;21.060;2023-07-29T09:49:51;3.20;;;3.00;;
43682;SDS011;29285;52.128;21.060;2023-07-29T09:54:54;2.80;;;2.60;;
43682;SDS011;29285;52.128;21.060;2023-07-29T09:59:56;4.60;;;3.50;;
43682;SDS011;29285;52.128;21.060;2023-07-29T10:04:58;2.90;;;2.70;;
43682;SDS011;29285;52.128;21.060;2023-07-29T10:10:01;3.10;;;2.90;;
43682;SDS011;29285;52.128;21.060;2023-07-29T10:15:06;2.70;;;2.60;;
43682;SDS011;29285;52.128;21.060;2023-07-29T10:20:08;2.90;;;2.70;;
43682;SDS011;29285;52.128;21.060;2023-07-29T10:25:18;2.80;;;2.60;;
43682;SDS011;29285;52.128;21.060;2023-07-29T10:30:24;2.80;;;2.60;;
43682;SDS011;29285;52.128;21.060;2023-07-29T10:35:26;2.90;;;2.70;;
43682;SDS011;29285;52.128;21.060;2023-07-29T10:40:50;3.30;;;3.00;;
43682;SDS011;29285;52.128;21.060;2023-07-29T10:45:57;3.60;;;2.50;;
43682;SDS011;29285;52.128;21.060;2023-07-29T10:56:34;2.80;;;2.60;;
43682;SDS011;29285;52.128;21.060;2023-07-29T11:01:41;2.50;;;2.30;;
43682;SDS011;29285;52.128;21.060;2023-07-29T11:12:05;3.00;;;2.80;;
43682;SDS011;29285;52.128;21.060;2023-07-29T11:17:28;3.10;;;2.70;;
43682;SDS011;29285;52.128;21.060;2023-07-29T11:22:34;2.50;;;2.30;;
43682;SDS011;29285;52.128;21.060;2023-07-29T11:27:36;2.80;;;2.60;;
43682;SDS011;29285;52.128;21.060;2023-07-29T11:32:39;2.30;;;2.20;;
43682;SDS011;29285;52.128;21.060;2023-07-29T11:37:49;11.30;;;9.30;;
43682;SDS011;29285;52.128;21.060;2023-07-29T11:42:53;7.50;;;4.20;;
43682;SDS011;29285;52.128;21.060;2023-07-29T11:47:56;3.20;;;2.90;;
43682;SDS011;29285;52.128;21.060;2023-07-29T11:52:58;2.80;;;2.60;;
43682;SDS011;29285;52.128;21.060;2023-07-29T11:58:00;4.10;;;2.20;;
43682;SDS011;29285;52.128;21.060;2023-07-29T12:03:02;3.50;;;2.70;;
43682;SDS011;29285;52.128;21.060;2023-07-29T12:08:05;3.40;;;2.70;;
43682;SDS011;29285;52.128;21.060;2023-07-29T12:13:07;2.80;;;2.60;;
43682;SDS011;29285;52.128;21.060;2023-07-29T12:18:09;3.00;;;2.80;;
43682;SDS011;29285;52.128;21.060;2023-07-29T12:23:13;2.90;;;2.70;;
43682;SDS011;29285;52.128;21.060;2023-07-29T12:28:15;2.90;;;2.70;;
43682;SDS011;29285;52.128;21.060;2023-07-29T12:33:30;5.70;;;2.60;;
43682;SDS011;29285;52.128;21.060;2023-07-29T12:38:32;4.20;;;2.50;;
43682;SDS011;29285;52.128;21.060;2023-07-29T12:43:34;2.70;;;2.50;;
43682;SDS011;29285;52.128;21.060;2023-07-29T12:48:36;2.90;;;2.70;;
43682;SDS011;29285;52.128;21.060;2023-07-29T12:53:38;2.40;;;2.30;;
43682;SDS011;29285;52.128;21.060;2023-07-29T12:58:40;2.90;;;2.70;;
43682;SDS011;29285;52.128;21.060;2023-07-29T13:03:42;3.00;;;2.50;;
43682;SDS011;29285;52.128;21.060;2023-07-29T13:08:45;2.60;;;2.40;;
43682;SDS011;29285;52.128;21.060;2023-07-29T13:13:47;2.50;;;2.30;;
43682;SDS011;29285;52.128;21.060;2023-07-29T13:18:49;3.60;;;2.50;;
43682;SDS011;29285;52.128;21.060;2023-07-29T13:23:52;3.00;;;2.40;;
43682;SDS011;29285;52.128;21.060;2023-07-29T13:28:54;3.30;;;3.00;;
43682;SDS011;29285;52.128;21.060;2023-07-29T13:33:57;2.70;;;2.40;;
43682;SDS011;29285;52.128;21.060;2023-07-29T13:38:59;2.20;;;2.10;;
43682;SDS011;29285;52.128;21.060;2023-07-29T13:44:01;2.90;;;2.20;;
43682;SDS011;29285;52.128;21.060;2023-07-29T13:49:03;2.30;;;2.20;;
43682;SDS011;29285;52.128;21.060;2023-07-29T13:54:05;2.40;;;2.00;;
43682;SDS011;29285;52.128;21.060;2023-07-29T13:59:07;3.80;;;2.20;;
43682;SDS011;29285;52.128;21.060;2023-07-29T14:04:09;2.30;;;2.10;;
43682;SDS011;29285;52.128;21.060;2023-07-29T14:09:10;2.20;;;2.10;;
43682;SDS011;29285;52.128;21.060;2023-07-29T14:14:12;4.50;;;2.00;;
43682;SDS011;29285;52.128;21.060;2023-07-29T14:19:14;1.90;;;1.80;;
43682;SDS011;29285;52.128;21.060;2023-07-29T14:24:17;1.90;;;1.70;;
43682;SDS011;29285;52.128;21.060;2023-07-29T14:29:23;2.20;;;2.00;;
43682;SDS011;29285;52.128;21.060;2023-07-29T14:34:25;3.00;;;1.80;;
43682;SDS011;29285;52.128;21.060;2023-07-29T14:39:28;2.10;;;1.90;;
43682;SDS011;29285;52.128;21.060;2023-07-29T14:44:29;2.70;;;1.60;;
43682;SDS011;29285;52.128;21.060;2023-07-29T14:49:31;3.00;;;1.90;;
43682;SDS011;29285;52.128;21.060;2023-07-29T14:54:34;2.10;;;1.90;;
43682;SDS011;29285;52.128;21.060;2023-07-29T14:59:36;2.40;;;1.80;;
43682;SDS011;29285;52.128;21.060;2023-07-29T15:04:38;8.00;;;2.20;;
43682;SDS011;29285;52.128;21.060;2023-07-29T15:09:40;2.00;;;1.80;;
43682;SDS011;29285;52.128;21.060;2023-07-29T15:14:42;3.30;;;1.70;;
43682;SDS011;29285;52.128;21.060;2023-07-29T15:19:44;1.70;;;1.60;;
43682;SDS011;29285;52.128;21.060;2023-07-29T15:24:46;3.30;;;1.80;;
43682;SDS011;29285;52.128;21.060;2023-07-29T15:29:48;1.80;;;1.70;;
43682;SDS011;29285;52.128;21.060;2023-07-29T15:34:50;1.90;;;1.70;;
43682;SDS011;29285;52.128;21.060;2023-07-29T15:39:51;2.60;;;2.20;;
43682;SDS011;29285;52.128;21.060;2023-07-29T15:44:53;2.90;;;2.00;;
43682;SDS011;29285;52.128;21.060;2023-07-29T15:49:55;2.20;;;2.00;;
43682;SDS011;29285;52.128;21.060;2023-07-29T15:54:57;3.20;;;2.50;;
43682;SDS011;29285;52.128;21.060;2023-07-29T15:59:59;3.90;;;2.10;;
43682;SDS011;29285;52.128;21.060;2023-07-29T16:05:02;2.50;;;2.10;;
43682;SDS011;29285;52.128;21.060;2023-07-29T16:10:04;2.40;;;2.20;;
43682;SDS011;29285;52.128;21.060;2023-07-29T16:15:07;3.00;;;2.00;;
43682;SDS011;29285;52.128;21.060;2023-07-29T16:20:10;8.00;;;2.30;;
43682;SDS011;29285;52.128;21.060;2023-07-29T16:25:13;3.50;;;2.50;;
43682;SDS011;29285;52.128;21.060;2023-07-29T16:30:15;2.60;;;2.20;;
43682;SDS011;29285;52.128;21.060;2023-07-29T16:35:17;2.30;;;2.10;;
43682;SDS011;29285;52.128;21.060;2023-07-29T16:40:19;3.90;;;2.60;;
43682;SDS011;29285;52.128;21.060;2023-07-29T16:45:21;2.20;;;2.10;;
43682;SDS011;29285;52.128;21.060;2023-07-29T16:50:24;3.30;;;3.10;;
43682;SDS011;29285;52.128;21.060;2023-07-29T16:55:26;6.30;;;2.50;;
43682;SDS011;29285;52.128;21.060;2023-07-29T17:00:28;4.30;;;2.40;;
43682;SDS011;29285;52.128;21.060;2023-07-29T17:05:29;2.60;;;2.20;;
43682;SDS011;29285;52.128;21.060;2023-07-29T17:10:31;4.00;;;2.90;;
43682;SDS011;29285;52.128;21.060;2023-07-29T17:15:33;3.90;;;2.30;;
43682;SDS011;29285;52.128;21.060;2023-07-29T17:20:35;2.40;;;2.30;;
43682;SDS011;29285;52.128;21.060;2023-07-29T17:25:37;4.80;;;2.50;;
43682;SDS011;29285;52.128;21.060;2023-07-29T17:30:39;4.00;;;2.90;;
43682;SDS011;29285;52.128;21.060;2023-07-29T17:35:45;4.10;;;2.60;;
43682;SDS011;29285;52.128;21.060;2023-07-29T17:40:48;3.90;;;2.50;;
43682;SDS011;29285;52.128;21.060;2023-07-29T17:45:50;2.80;;;2.60;;
43682;SDS011;29285;52.128;21.060;2023-07-29T17:50:52;2.90;;;2.70;;
43682;SDS011;29285;52.128;21.060;2023-07-29T17:55:55;4.90;;;2.70;;
43682;SDS011;29285;52.128;21.060;2023-07-29T18:00:57;3.00;;;2.60;;
43682;SDS011;29285;52.128;21.060;2023-07-29T18:05:59;4.80;;;3.00;;
43682;SDS011;29285;52.128;21.060;2023-07-29T18:11:01;3.80;;;2.70;;
43682;SDS011;29285;52.128;21.060;2023-07-29T18:16:03;3.40;;;3.00;;
43682;SDS011;29285;52.128;21.060;2023-07-29T18:21:05;3.60;;;3.30;;
43682;SDS011;29285;52.128;21.060;2023-07-29T18:26:07;6.10;;;4.30;;
43682;SDS011;29285;52.128;21.060;2023-07-29T18:31:09;4.90;;;4.40;;
43682;SDS011;29285;52.128;21.060;2023-07-29T18:36:11;5.20;;;4.80;;
43682;SDS011;29285;52.128;21.060;2023-07-29T18:41:14;5.90;;;3.30;;
43682;SDS011;29285;52.128;21.060;2023-07-29T18:46:17;4.00;;;3.70;;
43682;SDS011;29285;52.128;21.060;2023-07-29T18:51:18;6.90;;;3.10;;
43682;SDS011;29285;52.128;21.060;2023-07-29T18:56:20;4.50;;;4.10;;
43682;SDS011;29285;52.128;21.060;2023-07-29T19:01:22;5.70;;;5.10;;
43682;SDS011;29285;52.128;21.060;2023-07-29T19:06:30;5.00;;;4.00;;
43682;SDS011;29285;52.128;21.060;2023-07-29T19:11:32;4.30;;;3.90;;
43682;SDS011;29285;52.128;21.060;2023-07-29T19:16:34;4.60;;;4.20;;
43682;SDS011;29285;52.128;21.060;2023-07-29T19:21:36;4.50;;;4.00;;
43682;SDS011;29285;52.128;21.060;2023-07-29T19:26:38;6.40;;;5.10;;
43682;SDS011;29285;52.128;21.060;2023-07-29T19:31:40;5.70;;;4.30;;
43682;SDS011;29285;52.128;21.060;2023-07-29T19:36:45;5.40;;;4.90;;
43682;SDS011;29285;52.128;21.060;2023-07-29T19:41:47;4.80;;;4.40;;
43682;SDS011;29285;52.128;21.060;2023-07-29T19:46:49;4.70;;;4.30;;
43682;SDS011;29285;52.128;21.060;2023-07-29T19:51:51;4.90;;;4.50;;
43682;SDS011;29285;52.128;21.060;2023-07-29T19:56:59;7.80;;;5.20;;
43682;SDS011;29285;52.128;21.060;2023-07-29T20:02:01;5.40;;;4.80;;
43682;SDS011;29285;52.128;21.060;2023-07-29T20:07:02;5.70;;;5.00;;
43682;SDS011;29285;52.128;21.060;2023-07-29T20:12:05;5.10;;;4.40;;
43682;SDS011;29285;52.128;21.060;2023-07-29T20:17:07;5.80;;;3.80;;
43682;SDS011;29285;52.128;21.060;2023-07-29T20:22:09;5.90;;;5.40;;
43682;SDS011;29285;52.128;21.060;2023-07-29T20:27:11;5.50;;;5.00;;
43682;SDS011;29285;52.128;21.060;2023-07-29T20:32:13;5.40;;;4.90;;
43682;SDS011;29285;52.128;21.060;2023-07-29T20:37:15;5.50;;;5.10;;
43682;SDS011;29285;52.128;21.060;2023-07-29T20:42:17;5.10;;;4.60;;
43682;SDS011;29285;52.128;21.060;2023-07-29T20:47:18;4.10;;;3.80;;
43682;SDS011;29285;52.128;21.060;2023-07-29T20:52:20;4.60;;;4.10;;
43682;SDS011;29285;52.128;21.060;2023-07-29T20:57:23;4.20;;;3.70;;
43682;SDS011;29285;52.128;21.060;2023-07-29T21:02:25;7.00;;;4.00;;
43682;SDS011;29285;52.128;21.060;2023-07-29T21:07:27;4.50;;;4.10;;
43682;SDS011;29285;52.128;21.060;2023-07-29T21:12:29;6.10;;;3.10;;
43682;SDS011;29285;52.128;21.060;2023-07-29T21:17:31;4.00;;;2.40;;
43682;SDS011;29285;52.128;21.060;2023-07-29T21:22:33;5.20;;;2.90;;
43682;SDS011;29285;52.128;21.060;2023-07-29T21:27:35;6.60;;;2.30;;
43682;SDS011;29285;52.128;21.060;2023-07-29T21:32:37;6.90;;;3.10;;
43682;SDS011;29285;52.128;21.060;2023-07-29T21:37:39;3.80;;;3.20;;
43682;SDS011;29285;52.128;21.060;2023-07-29T21:42:41;5.90;;;2.10;;
43682;SDS011;29285;52.128;21.060;2023-07-29T21:47:43;4.00;;;2.20;;
43682;SDS011;29285;52.128;21.060;2023-07-29T21:52:45;4.20;;;1.70;;
43682;SDS011;29285;52.128;21.060;2023-07-29T21:57:47;5.40;;;2.20;;
43682;SDS011;29285;52.128;21.060;2023-07-29T22:02:49;3.50;;;2.30;;
43682;SDS011;29285;52.128;21.060;2023-07-29T22:07:51;6.30;;;2.40;;
43682;SDS011;29285;52.128;21.060;2023-07-29T22:12:53;4.30;;;2.60;;
43682;SDS011;29285;52.128;21.060;2023-07-29T22:17:56;3.90;;;2.60;;
43682;SDS011;29285;52.128;21.060;2023-07-29T22:22:58;4.50;;;2.50;;
43682;SDS011;29285;52.128;21.060;2023-07-29T22:28:00;5.40;;;2.30;;
43682;SDS011;29285;52.128;21.060;2023-07-29T22:33:02;3.80;;;2.20;;
43682;SDS011;29285;52.128;21.060;2023-07-29T22:38:03;3.40;;;2.50;;
43682;SDS011;29285;52.128;21.060;2023-07-29T22:43:05;2.70;;;2.10;;
43682;SDS011;29285;52.128;21.060;2023-07-29T22:48:07;3.40;;;2.40;;
43682;SDS011;29285;52.128;21.060;2023-07-29T22:53:09;3.30;;;2.10;;
43682;SDS011;29285;52.128;21.060;2023-07-29T22:58:11;2.50;;;2.20;;
43682;SDS011;29285;52.128;21.060;2023-07-29T23:03:14;5.40;;;2.90;;
43682;SDS011;29285;52.128;21.060;2023-07-29T23:08:16;2.20;;;1.80;;
43682;SDS011;29285;52.128;21.060;2023-07-29T23:13:18;3.60;;;2.60;;
43682;SDS011;29285;52.128;21.060;2023-07-29T23:18:21;2.70;;;2.40;;
43682;SDS011;29285;52.128;21.060;2023-07-29T23:23:22;3.40;;;2.80;;
43682;SDS011;29285;52.128;21.060;2023-07-29T23:28:24;3.50;;;2.70;;
43682;SDS011;29285;52.128;21.060;2023-07-29T23:33:27;2.40;;;2.50;;
43682;SDS011;29285;52.128;21.060;2023-07-29T23:38:28;3.50;;;2.40;;
43682;SDS011;29285;52.128;21.060;2023-07-29T23:43:31;4.60;;;2.30;;
43682;SDS011;29285;52.128;21.060;2023-07-29T23:48:33;6.20;;;2.90;;
43682;SDS011;29285;52.128;21.060;2023-07-29T23:53:34;6.20;;;2.70;;
43682;SDS011;29285;52.128;21.060;2023-07-29T23:58:36;4.00;;;2.40;;
